sensor_id;sensor_type;location;lat;lon;timestamp;temperature;humidity
57444;DHT22;43289;52.962;6.196;2023-04-29T06:57:02;12.20;99.90
57444;DHT22;43289;52.962;6.196;2023-04-29T06:59:27;10.30;99.90
57444;DHT22;43289;52.962;6.196;2023-04-29T07:01:53;10.40;99.90
57444;DHT22;43289;52.962;6.196;2023-04-29T07:04:19;10.50;99.90
57444;DHT22;43289;52.962;6.196;2023-04-29T07:06:44;10.50;99.90
57444;DHT22;43289;52.962;6.196;2023-04-29T07:28:44;10.60;99.90
57444;DHT22;43289;52.962;6.196;2023-04-29T07:31:10;11.20;99.90
57444;DHT22;43289;52.962;6.196;2023-04-29T07:33:36;11.30;99.90
57444;DHT22;43289;52.962;6.196;2023-04-29T07:36:02;11.30;99.90
57444;DHT22;43289;52.962;6.196;2023-04-29T07:38:28;11.40;99.90
57444;DHT22;43289;52.962;6.196;2023-04-29T07:43:21;11.50;99.90
57444;DHT22;43289;52.962;6.196;2023-04-29T07:50:39;11.50;99.90
57444;DHT22;43289;52.962;6.196;2023-04-29T08:12:35;11.70;99.90
57444;DHT22;43289;52.962;6.196;2023-04-29T08:15:01;12.20;99.90
57444;DHT22;43289;52.962;6.196;2023-04-29T08:17:26;12.30;99.90
57444;DHT22;43289;52.962;6.196;2023-04-29T08:19:52;12.40;99.90
57444;DHT22;43289;52.962;6.196;2023-04-29T08:22:17;12.40;99.90
57444;DHT22;43289;52.962;6.196;2023-04-29T08:24:43;12.60;99.90
57444;DHT22;43289;52.962;6.196;2023-04-29T10:04:40;12.70;99.90
57444;DHT22;43289;52.962;6.196;2023-04-29T10:22:11;14.60;99.90
57444;DHT22;43289;52.962;6.196;2023-04-29T10:24:37;14.90;99.90
57444;DHT22;43289;52.962;6.196;2023-04-29T10:29:34;14.80;99.90
57444;DHT22;43289;52.962;6.196;2023-04-29T10:54:31;15.00;99.90
57444;DHT22;43289;52.962;6.196;2023-04-29T10:56:56;16.10;99.90
57444;DHT22;43289;52.962;6.196;2023-04-29T11:02:09;16.50;99.90
57444;DHT22;43289;52.962;6.196;2023-04-29T11:05:07;16.70;99.90
57444;DHT22;43289;52.962;6.196;2023-04-29T11:07:33;16.50;99.90
57444;DHT22;43289;52.962;6.196;2023-04-29T11:10:01;16.40;99.90
57444;DHT22;43289;52.962;6.196;2023-04-29T11:12:27;16.10;99.90
57444;DHT22;43289;52.962;6.196;2023-04-29T11:14:53;16.10;99.90
57444;DHT22;43289;52.962;6.196;2023-04-29T11:23:40;16.20;99.90
57444;DHT22;43289;52.962;6.196;2023-04-29T11:26:06;16.00;99.90
57444;DHT22;43289;52.962;6.196;2023-04-29T11:28:33;16.00;99.90
57444;DHT22;43289;52.962;6.196;2023-04-29T11:30:59;16.10;99.90
57444;DHT22;43289;52.962;6.196;2023-04-29T11:33:26;16.10;99.90
57444;DHT22;43289;52.962;6.196;2023-04-29T11:35:56;16.20;99.90
57444;DHT22;43289;52.962;6.196;2023-04-29T11:38:29;16.20;99.90
57444;DHT22;43289;52.962;6.196;2023-04-29T11:40:56;16.30;99.90
57444;DHT22;43289;52.962;6.196;2023-04-29T11:43:23;16.40;99.90
57444;DHT22;43289;52.962;6.196;2023-04-29T11:45:52;16.50;99.90
57444;DHT22;43289;52.962;6.196;2023-04-29T11:48:19;16.70;99.90
57444;DHT22;43289;52.962;6.196;2023-04-29T11:50:46;16.80;99.90
57444;DHT22;43289;52.962;6.196;2023-04-29T11:53:13;16.90;99.90
57444;DHT22;43289;52.962;6.196;2023-04-29T11:55:44;16.70;99.90
57444;DHT22;43289;52.962;6.196;2023-04-29T11:58:11;16.60;99.90
57444;DHT22;43289;52.962;6.196;2023-04-29T12:00:38;16.70;99.90
57444;DHT22;43289;52.962;6.196;2023-04-29T12:03:14;16.90;99.90
57444;DHT22;43289;52.962;6.196;2023-04-29T12:05:54;16.80;99.90
57444;DHT22;43289;52.962;6.196;2023-04-29T12:08:26;16.80;99.90
57444;DHT22;43289;52.962;6.196;2023-04-29T12:10:54;16.50;99.90
57444;DHT22;43289;52.962;6.196;2023-04-29T12:13:22;16.60;99.90
57444;DHT22;43289;52.962;6.196;2023-04-29T12:15:49;16.60;99.90
57444;DHT22;43289;52.962;6.196;2023-04-29T12:18:17;16.80;99.90
57444;DHT22;43289;52.962;6.196;2023-04-29T12:20:44;16.80;99.90
57444;DHT22;43289;52.962;6.196;2023-04-29T12:23:14;16.90;99.90
57444;DHT22;43289;52.962;6.196;2023-04-29T12:25:41;17.10;99.90
57444;DHT22;43289;52.962;6.196;2023-04-29T12:28:11;16.90;99.90
57444;DHT22;43289;52.962;6.196;2023-04-29T12:30:37;16.90;99.90
57444;DHT22;43289;52.962;6.196;2023-04-29T12:33:03;16.90;99.90
57444;DHT22;43289;52.962;6.196;2023-04-29T12:35:28;17.00;99.90
57444;DHT22;43289;52.962;6.196;2023-04-29T12:37:57;17.20;99.90
57444;DHT22;43289;52.962;6.196;2023-04-29T12:40:23;17.40;99.90
57444;DHT22;43289;52.962;6.196;2023-04-29T12:42:49;17.80;99.90
57444;DHT22;43289;52.962;6.196;2023-04-29T12:45:32;17.60;99.90
57444;DHT22;43289;52.962;6.196;2023-04-29T12:48:00;17.60;99.90
57444;DHT22;43289;52.962;6.196;2023-04-29T12:53:31;17.40;99.90
57444;DHT22;43289;52.962;6.196;2023-04-29T12:55:57;17.40;99.90
57444;DHT22;43289;52.962;6.196;2023-04-29T12:58:23;17.50;99.90
57444;DHT22;43289;52.962;6.196;2023-04-29T13:00:49;17.30;99.90
57444;DHT22;43289;52.962;6.196;2023-04-29T13:03:17;17.20;99.90
57444;DHT22;43289;52.962;6.196;2023-04-29T13:05:44;17.30;99.90
57444;DHT22;43289;52.962;6.196;2023-04-29T13:08:09;17.50;99.90
57444;DHT22;43289;52.962;6.196;2023-04-29T13:10:35;17.70;99.90
57444;DHT22;43289;52.962;6.196;2023-04-29T13:13:00;18.00;99.90
57444;DHT22;43289;52.962;6.196;2023-04-29T13:15:26;18.30;99.90
57444;DHT22;43289;52.962;6.196;2023-04-29T13:17:54;18.60;99.90
57444;DHT22;43289;52.962;6.196;2023-04-29T13:20:21;18.70;99.90
57444;DHT22;43289;52.962;6.196;2023-04-29T13:22:47;18.50;99.90
57444;DHT22;43289;52.962;6.196;2023-04-29T13:25:12;18.50;99.90
57444;DHT22;43289;52.962;6.196;2023-04-29T13:27:40;19.00;99.90
57444;DHT22;43289;52.962;6.196;2023-04-29T13:30:06;19.00;99.90
57444;DHT22;43289;52.962;6.196;2023-04-29T13:32:32;18.90;99.90
57444;DHT22;43289;52.962;6.196;2023-04-29T13:34:57;18.50;99.90
57444;DHT22;43289;52.962;6.196;2023-04-29T13:37:23;18.70;99.90
57444;DHT22;43289;52.962;6.196;2023-04-29T13:39:49;18.60;99.90
57444;DHT22;43289;52.962;6.196;2023-04-29T13:42:14;18.90;99.90
57444;DHT22;43289;52.962;6.196;2023-04-29T13:44:40;18.70;99.90
57444;DHT22;43289;52.962;6.196;2023-04-29T13:47:10;18.80;99.90
57444;DHT22;43289;52.962;6.196;2023-04-29T13:49:39;18.90;99.90
57444;DHT22;43289;52.962;6.196;2023-04-29T13:52:06;18.70;99.90
57444;DHT22;43289;52.962;6.196;2023-04-29T13:54:32;18.70;99.90
57444;DHT22;43289;52.962;6.196;2023-04-29T13:56:58;18.60;99.90
57444;DHT22;43289;52.962;6.196;2023-04-29T13:59:23;18.20;99.90
57444;DHT22;43289;52.962;6.196;2023-04-29T14:01:49;18.30;99.90
57444;DHT22;43289;52.962;6.196;2023-04-29T14:04:15;18.30;99.90
57444;DHT22;43289;52.962;6.196;2023-04-29T14:06:44;18.40;99.90
57444;DHT22;43289;52.962;6.196;2023-04-29T14:09:10;18.30;99.90
57444;DHT22;43289;52.962;6.196;2023-04-29T14:11:36;18.30;99.90
57444;DHT22;43289;52.962;6.196;2023-04-29T14:14:02;18.30;99.90
57444;DHT22;43289;52.962;6.196;2023-04-29T14:16:28;18.40;99.90
57444;DHT22;43289;52.962;6.196;2023-04-29T14:18:54;18.40;99.90
57444;DHT22;43289;52.962;6.196;2023-04-29T14:21:21;18.40;99.90
57444;DHT22;43289;52.962;6.196;2023-04-29T14:23:47;18.00;99.90
57444;DHT22;43289;52.962;6.196;2023-04-29T14:26:14;17.80;99.90
57444;DHT22;43289;52.962;6.196;2023-04-29T14:28:40;17.90;99.90
57444;DHT22;43289;52.962;6.196;2023-04-29T14:31:05;18.10;99.90
57444;DHT22;43289;52.962;6.196;2023-04-29T14:33:31;18.30;99.90
57444;DHT22;43289;52.962;6.196;2023-04-29T14:35:57;18.40;99.90
57444;DHT22;43289;52.962;6.196;2023-04-29T14:38:23;18.40;99.90
57444;DHT22;43289;52.962;6.196;2023-04-29T14:40:48;18.30;99.90
57444;DHT22;43289;52.962;6.196;2023-04-29T14:43:14;18.20;99.90
57444;DHT22;43289;52.962;6.196;2023-04-29T14:45:40;18.50;99.90
57444;DHT22;43289;52.962;6.196;2023-04-29T14:48:06;18.30;99.90
57444;DHT22;43289;52.962;6.196;2023-04-29T14:50:32;18.20;99.90
57444;DHT22;43289;52.962;6.196;2023-04-29T14:52:57;18.40;99.90
57444;DHT22;43289;52.962;6.196;2023-04-29T14:55:24;18.10;99.90
57444;DHT22;43289;52.962;6.196;2023-04-29T14:57:50;17.80;99.90
57444;DHT22;43289;52.962;6.196;2023-04-29T15:00:15;17.70;99.90
57444;DHT22;43289;52.962;6.196;2023-04-29T15:02:41;17.80;99.90
57444;DHT22;43289;52.962;6.196;2023-04-29T16:36:44;17.60;99.90
57444;DHT22;43289;52.962;6.196;2023-04-29T16:44:02;14.50;99.90
57444;DHT22;43289;52.962;6.196;2023-04-29T17:30:25;13.70;99.90
57444;DHT22;43289;52.962;6.196;2023-04-29T17:32:52;12.80;99.90
57444;DHT22;43289;52.962;6.196;2023-04-29T18:09:24;12.70;99.90
57444;DHT22;43289;52.962;6.196;2023-04-29T18:11:50;11.50;99.90
57444;DHT22;43289;52.962;6.196;2023-04-29T18:14:17;11.30;99.90
57444;DHT22;43289;52.962;6.196;2023-04-29T18:16:43;11.20;99.90
57444;DHT22;43289;52.962;6.196;2023-04-29T18:19:09;11.10;99.90
57444;DHT22;43289;52.962;6.196;2023-04-29T18:21:34;11.00;99.90
57444;DHT22;43289;52.962;6.196;2023-04-29T18:24:00;10.90;99.90
57444;DHT22;43289;52.962;6.196;2023-04-29T18:26:25;10.90;99.90
57444;DHT22;43289;52.962;6.196;2023-04-29T18:28:51;10.80;99.90
57444;DHT22;43289;52.962;6.196;2023-04-29T18:31:17;10.80;99.90
57444;DHT22;43289;52.962;6.196;2023-04-29T18:33:45;10.80;99.90
57444;DHT22;43289;52.962;6.196;2023-04-29T18:36:11;10.80;99.90
57444;DHT22;43289;52.962;6.196;2023-04-29T18:38:38;10.80;99.90
57444;DHT22;43289;52.962;6.196;2023-04-29T18:41:03;10.90;99.90
57444;DHT22;43289;52.962;6.196;2023-04-29T18:43:30;10.90;99.90
57444;DHT22;43289;52.962;6.196;2023-04-29T18:45:57;10.90;99.90
57444;DHT22;43289;52.962;6.196;2023-04-29T18:48:23;10.90;99.90
57444;DHT22;43289;52.962;6.196;2023-04-29T18:51:04;10.90;99.90
57444;DHT22;43289;52.962;6.196;2023-04-29T18:53:30;10.90;99.90
57444;DHT22;43289;52.962;6.196;2023-04-29T18:55:56;10.90;99.90
57444;DHT22;43289;52.962;6.196;2023-04-29T18:58:21;11.00;99.90
57444;DHT22;43289;52.962;6.196;2023-04-29T19:00:50;10.90;99.90
57444;DHT22;43289;52.962;6.196;2023-04-29T19:03:15;11.00;99.90
57444;DHT22;43289;52.962;6.196;2023-04-29T19:05:43;10.90;99.90
57444;DHT22;43289;52.962;6.196;2023-04-29T19:08:09;10.90;99.90
57444;DHT22;43289;52.962;6.196;2023-04-29T19:10:35;10.90;99.90
57444;DHT22;43289;52.962;6.196;2023-04-29T19:13:02;10.90;99.90
57444;DHT22;43289;52.962;6.196;2023-04-29T19:15:28;11.00;99.90
57444;DHT22;43289;52.962;6.196;2023-04-29T19:17:56;11.00;99.90
57444;DHT22;43289;52.962;6.196;2023-04-29T19:20:21;11.00;99.90
57444;DHT22;43289;52.962;6.196;2023-04-29T19:22:47;11.00;99.90
57444;DHT22;43289;52.962;6.196;2023-04-29T19:25:13;11.00;99.90
57444;DHT22;43289;52.962;6.196;2023-04-29T19:27:38;10.90;99.90
57444;DHT22;43289;52.962;6.196;2023-04-29T19:30:11;10.90;99.90
57444;DHT22;43289;52.962;6.196;2023-04-29T19:32:39;10.90;99.90
57444;DHT22;43289;52.962;6.196;2023-04-29T19:35:05;10.90;99.90
57444;DHT22;43289;52.962;6.196;2023-04-29T19:37:31;10.80;99.90
57444;DHT22;43289;52.962;6.196;2023-04-29T19:39:56;10.80;99.90
57444;DHT22;43289;52.962;6.196;2023-04-29T19:42:22;10.70;99.90
57444;DHT22;43289;52.962;6.196;2023-04-29T19:44:47;10.70;99.90
57444;DHT22;43289;52.962;6.196;2023-04-29T19:47:13;10.60;99.90
57444;DHT22;43289;52.962;6.196;2023-04-29T19:49:38;10.60;99.90
57444;DHT22;43289;52.962;6.196;2023-04-29T19:52:04;10.60;99.90
57444;DHT22;43289;52.962;6.196;2023-04-29T19:54:32;10.60;99.90
57444;DHT22;43289;52.962;6.196;2023-04-29T19:57:00;10.50;99.90
57444;DHT22;43289;52.962;6.196;2023-04-29T19:59:27;10.50;99.90
57444;DHT22;43289;52.962;6.196;2023-04-29T20:01:52;10.50;99.90
57444;DHT22;43289;52.962;6.196;2023-04-29T20:04:18;10.50;99.90
57444;DHT22;43289;52.962;6.196;2023-04-29T20:06:43;10.50;99.90
57444;DHT22;43289;52.962;6.196;2023-04-29T20:09:09;10.40;99.90
57444;DHT22;43289;52.962;6.196;2023-04-29T20:11:35;10.40;99.90
57444;DHT22;43289;52.962;6.196;2023-04-29T20:14:01;10.30;99.90
57444;DHT22;43289;52.962;6.196;2023-04-29T20:16:26;10.30;99.90
57444;DHT22;43289;52.962;6.196;2023-04-29T20:18:55;10.30;99.90
57444;DHT22;43289;52.962;6.196;2023-04-29T20:21:21;10.30;99.90
57444;DHT22;43289;52.962;6.196;2023-04-29T20:23:46;10.30;99.90
57444;DHT22;43289;52.962;6.196;2023-04-29T20:26:14;10.30;99.90
57444;DHT22;43289;52.962;6.196;2023-04-29T20:28:40;10.30;99.90
57444;DHT22;43289;52.962;6.196;2023-04-29T20:31:05;10.30;99.90
57444;DHT22;43289;52.962;6.196;2023-04-29T20:33:32;10.30;99.90
57444;DHT22;43289;52.962;6.196;2023-04-29T20:35:58;10.30;99.90
57444;DHT22;43289;52.962;6.196;2023-04-29T20:38:29;10.30;99.90
57444;DHT22;43289;52.962;6.196;2023-04-29T20:41:00;10.20;99.90
57444;DHT22;43289;52.962;6.196;2023-04-29T20:43:26;10.20;99.90
57444;DHT22;43289;52.962;6.196;2023-04-29T20:45:52;10.10;99.90
57444;DHT22;43289;52.962;6.196;2023-04-29T20:48:17;10.10;99.90
57444;DHT22;43289;52.962;6.196;2023-04-29T20:50:43;10.10;99.90
57444;DHT22;43289;52.962;6.196;2023-04-29T20:53:08;10.10;99.90
57444;DHT22;43289;52.962;6.196;2023-04-29T20:55:34;10.10;99.90
57444;DHT22;43289;52.962;6.196;2023-04-29T20:58:00;10.10;99.90
57444;DHT22;43289;52.962;6.196;2023-04-29T21:00:25;10.10;99.90
57444;DHT22;43289;52.962;6.196;2023-04-29T21:02:51;10.10;99.90
57444;DHT22;43289;52.962;6.196;2023-04-29T21:05:17;10.10;99.90
57444;DHT22;43289;52.962;6.196;2023-04-29T21:07:42;10.10;99.90
57444;DHT22;43289;52.962;6.196;2023-04-29T21:10:08;10.10;99.90
57444;DHT22;43289;52.962;6.196;2023-04-29T21:12:34;10.10;99.90
57444;DHT22;43289;52.962;6.196;2023-04-29T21:15:00;10.10;99.90
57444;DHT22;43289;52.962;6.196;2023-04-29T21:17:25;10.10;99.90
57444;DHT22;43289;52.962;6.196;2023-04-29T21:19:51;10.10;99.90
57444;DHT22;43289;52.962;6.196;2023-04-29T21:22:16;10.10;99.90
57444;DHT22;43289;52.962;6.196;2023-04-29T21:24:42;10.10;99.90
57444;DHT22;43289;52.962;6.196;2023-04-29T21:27:08;10.10;99.90
57444;DHT22;43289;52.962;6.196;2023-04-29T21:29:33;10.10;99.90
57444;DHT22;43289;52.962;6.196;2023-04-29T21:31:59;10.10;99.90
57444;DHT22;43289;52.962;6.196;2023-04-29T21:34:24;10.10;99.90
57444;DHT22;43289;52.962;6.196;2023-04-29T21:36:50;10.10;99.90
57444;DHT22;43289;52.962;6.196;2023-04-29T21:39:15;10.00;99.90
57444;DHT22;43289;52.962;6.196;2023-04-29T21:41:43;10.10;99.90
57444;DHT22;43289;52.962;6.196;2023-04-29T21:44:10;10.00;99.90
57444;DHT22;43289;52.962;6.196;2023-04-29T21:46:36;10.00;99.90
57444;DHT22;43289;52.962;6.196;2023-04-29T21:49:02;10.00;99.90
57444;DHT22;43289;52.962;6.196;2023-04-29T21:51:28;10.00;99.90
57444;DHT22;43289;52.962;6.196;2023-04-29T21:53:54;10.00;99.90
57444;DHT22;43289;52.962;6.196;2023-04-29T21:56:21;10.10;99.90
57444;DHT22;43289;52.962;6.196;2023-04-29T21:58:48;10.00;99.90
57444;DHT22;43289;52.962;6.196;2023-04-29T22:01:14;10.00;99.90
57444;DHT22;43289;52.962;6.196;2023-04-29T22:03:57;10.00;99.90
57444;DHT22;43289;52.962;6.196;2023-04-29T22:06:23;9.90;99.90
57444;DHT22;43289;52.962;6.196;2023-04-29T22:08:49;9.80;99.90
57444;DHT22;43289;52.962;6.196;2023-04-29T22:11:15;9.80;99.90
57444;DHT22;43289;52.962;6.196;2023-04-29T22:13:40;9.80;99.90
57444;DHT22;43289;52.962;6.196;2023-04-29T22:16:06;9.80;99.90
57444;DHT22;43289;52.962;6.196;2023-04-29T22:18:32;9.80;99.90
57444;DHT22;43289;52.962;6.196;2023-04-29T22:20:58;9.70;99.90
57444;DHT22;43289;52.962;6.196;2023-04-29T22:23:23;9.60;99.90
57444;DHT22;43289;52.962;6.196;2023-04-29T22:25:49;9.60;99.90
57444;DHT22;43289;52.962;6.196;2023-04-29T22:28:14;9.50;99.90
57444;DHT22;43289;52.962;6.196;2023-04-29T22:30:41;9.50;99.90
57444;DHT22;43289;52.962;6.196;2023-04-29T22:33:11;9.40;99.90
57444;DHT22;43289;52.962;6.196;2023-04-29T22:35:37;9.40;99.90
57444;DHT22;43289;52.962;6.196;2023-04-29T22:38:03;9.30;99.90
57444;DHT22;43289;52.962;6.196;2023-04-29T22:40:29;9.20;99.90
57444;DHT22;43289;52.962;6.196;2023-04-29T22:42:54;9.20;99.90
57444;DHT22;43289;52.962;6.196;2023-04-29T22:45:20;9.10;99.90
57444;DHT22;43289;52.962;6.196;2023-04-29T22:47:45;9.00;99.90
57444;DHT22;43289;52.962;6.196;2023-04-29T22:50:11;8.90;99.90
57444;DHT22;43289;52.962;6.196;2023-04-29T22:52:36;8.90;99.90
57444;DHT22;43289;52.962;6.196;2023-04-29T22:55:02;8.80;99.90
57444;DHT22;43289;52.962;6.196;2023-04-29T22:57:28;8.70;99.90
57444;DHT22;43289;52.962;6.196;2023-04-29T22:59:54;8.60;99.90
57444;DHT22;43289;52.962;6.196;2023-04-29T23:02:21;8.50;99.90
57444;DHT22;43289;52.962;6.196;2023-04-29T23:04:53;8.40;99.90
57444;DHT22;43289;52.962;6.196;2023-04-29T23:07:19;8.30;99.90
57444;DHT22;43289;52.962;6.196;2023-04-29T23:09:46;8.20;99.90
57444;DHT22;43289;52.962;6.196;2023-04-29T23:12:14;8.10;99.90
57444;DHT22;43289;52.962;6.196;2023-04-29T23:14:39;8.10;99.90
57444;DHT22;43289;52.962;6.196;2023-04-29T23:17:05;8.00;99.90
57444;DHT22;43289;52.962;6.196;2023-04-29T23:19:30;8.00;99.90
57444;DHT22;43289;52.962;6.196;2023-04-29T23:21:56;7.90;99.90
57444;DHT22;43289;52.962;6.196;2023-04-29T23:24:22;7.90;99.90
57444;DHT22;43289;52.962;6.196;2023-04-29T23:26:47;7.80;99.90
57444;DHT22;43289;52.962;6.196;2023-04-29T23:29:14;7.70;99.90
57444;DHT22;43289;52.962;6.196;2023-04-29T23:31:39;7.70;99.90
57444;DHT22;43289;52.962;6.196;2023-04-29T23:34:05;7.60;99.90
57444;DHT22;43289;52.962;6.196;2023-04-29T23:36:32;7.50;99.90
57444;DHT22;43289;52.962;6.196;2023-04-29T23:38:58;7.50;99.90
57444;DHT22;43289;52.962;6.196;2023-04-29T23:41:23;7.40;99.90
57444;DHT22;43289;52.962;6.196;2023-04-29T23:43:49;7.40;99.90
57444;DHT22;43289;52.962;6.196;2023-04-29T23:46:14;7.30;99.90
57444;DHT22;43289;52.962;6.196;2023-04-29T23:48:41;7.30;99.90
57444;DHT22;43289;52.962;6.196;2023-04-29T23:51:07;7.30;99.90
57444;DHT22;43289;52.962;6.196;2023-04-29T23:53:33;7.20;99.90
57444;DHT22;43289;52.962;6.196;2023-04-29T23:55:59;7.20;99.90
57444;DHT22;43289;52.962;6.196;2023-04-29T23:58:24;7.10;99.90
